Arctic Village, AK

12:45 AKST le 25 novembre 2014 (GMT -0900)
Arctic Village | Change Station
CLOSE
Current Station
Aéroport
Location: Arctic Village,
Altitude: 2090 ft
Stations météo à proximité

Alt. 2090 ft 68.11 °N, 145.58 °W | Updated 29 minutes ago

Clear
Ciel dégagé
-6 ° F
Paraît -6 ° F
N
0
Vent Variable Vent de Nord

Aujourd'hui
Haut(e) -- | Bas -- ° F
--% Risque de précip.
Hier
Haut(e) -- | Bas -- ° F
Precip. -- pouce
10:49 AM 2:08 PM
Lune montante, 14% visible
Pression 29.99 pouce
Visibilité 5.0 Miles terrestres
Nuages Ciel dégagé
Point de rosée -18 ° F
Humidité 55%
Précipitations 0.00 pouce
Profondeur de la couche neigeuse Non disponible.
UV 0 sur 12
Pollen Non disponible.
Qualité de l'air Non disponible.
Flu Activity Non disponible.
METAR PARC 252116Z AUTO 00000KT 5SM CLR M21/M28 A2999 RMK AO1

More Conditions Fewer Conditions

Pression 29.99 pouce
Visibilité 5.0 Miles terrestres
Nuages Ciel dégagé
Point de rosée -18 ° F
Humidité 55%
Précipitations 0.00 pouce
Profondeur de la couche neigeuse Non disponible.
UV 0 sur 12
Pollen Non disponible.
Qualité de l'air Non disponible.
Flu Activity Non disponible.
METAR PARC 252116Z AUTO 00000KT 5SM CLR M21/M28 A2999 RMK AO1

More Conditions Fewer Conditions

10-Day Weather Forecast

Almanac

Astronomie

Nov. 25, 2014 Lever Coucher
Temps réel
Crépuscule civil
Crépuscule nautique
Crépuscule astronomique
Lune
Durée de lumière visible
Longueur du jour
Tomorrow will be .
, % of the Moon is Illuminated

Extrêmes aujourd'hui

State Highs State Lows

Community

WunderPhotos

Upload Photos

1,773,599 Photos téléchargées !

WunderBlogs® & News

Nearby

Qualité de l'air

  Qualité de l'air Indice de la qualité de l'air Polluant
Not available.

Épaisseur de neige

Station Depth Altitude

Activité sismique

Ville Distance Mag. Time & Date
Minimum magnitude displayed is 2.5.

Températures des eaux côtières

Lieu Température

Stations météo à proximité